Time;durP1;ratioP1;P1;durP2;ratioP2;P2;SDS_P1;SDS_P2;PMS_P1;PMS_P2;Temp;Humidity;BMP_temperature;BMP_pressure;BME280_temperature;BME280_humidity;BME280_pressure;Samples;Min_cycle;Max_cycle;Signal;HPM_P1;HPM_P2
2023/02/13 00:00:17;;;;;;;27.00;17.20;;;7.40;99.90;;;;;;7360837;19;20026;-62
2023/02/13 00:02:43;;;;;;;27.07;17.60;;;7.40;99.90;;;;;;7361525;19;20032;-61
2023/02/13 00:05:11;;;;;;;27.02;18.75;;;7.40;99.90;;;;;;7361723;19;20301;-63
2023/02/13 00:07:37;;;;;;;30.48;19.85;;;7.40;99.90;;;;;;7371097;19;20026;-61
2023/02/13 00:10:05;;;;;;;29.63;18.55;;;7.30;99.90;;;;;;7367427;19;20461;-59
2023/02/13 00:12:31;;;;;;;31.05;20.20;;;7.40;99.90;;;;;;7368555;19;20014;-61
2023/02/13 00:14:59;;;;;;;28.98;18.92;;;7.40;99.90;;;;;;7368237;19;20591;-61
2023/02/13 00:17:26;;;;;;;28.38;19.10;;;7.30;99.90;;;;;;7367590;19;20375;-61
2023/02/13 00:19:53;;;;;;;27.25;19.25;;;7.40;99.90;;;;;;7370975;19;20014;-61
2023/02/13 00:22:19;;;;;;;27.65;19.25;;;7.30;99.90;;;;;;7369360;19;20059;-60
2023/02/13 00:24:45;;;;;;;28.75;18.95;;;7.40;99.90;;;;;;7368628;19;20018;-60
2023/02/13 00:27:12;;;;;;;27.42;18.05;;;7.40;99.90;;;;;;7367535;19;20401;-60
2023/02/13 00:29:38;;;;;;;32.72;19.90;;;7.30;99.90;;;;;;7368679;19;20027;-60
2023/02/13 00:32:04;;;;;;;31.05;19.58;;;7.30;99.90;;;;;;7367848;19;20018;-61
2023/02/13 00:34:31;;;;;;;31.33;19.52;;;7.30;99.90;;;;;;7363265;19;20477;-60
2023/02/13 00:36:58;;;;;;;26.75;17.90;;;7.30;99.90;;;;;;7371631;19;20029;-60
2023/02/13 00:39:27;;;;;;;30.50;18.05;;;7.30;99.90;;;;;;7369499;19;20023;-61
2023/02/13 00:41:56;;;;;;;28.45;18.90;;;7.30;99.90;;;;;;7370467;19;20026;-61
2023/02/13 00:44:22;;;;;;;29.63;19.42;;;7.30;99.90;;;;;;7368856;19;20029;-63
2023/02/13 00:46:48;;;;;;;28.55;19.20;;;7.30;99.90;;;;;;7368579;19;20019;-63
2023/02/13 00:49:16;;;;;;;29.08;18.00;;;7.30;99.90;;;;;;7366534;19;20014;-61
2023/02/13 00:51:42;;;;;;;31.35;18.10;;;7.30;99.90;;;;;;7367610;19;20022;-60
2023/02/13 00:54:09;;;;;;;29.40;19.10;;;7.30;99.90;;;;;;7372123;19;20074;-61
2023/02/13 00:56:36;;;;;;;29.38;18.10;;;7.30;99.90;;;;;;7369108;19;20025;-60
2023/02/13 00:59:03;;;;;;;26.75;18.58;;;7.30;99.90;;;;;;7226160;19;2828692;-60
2023/02/13 01:01:30;;;;;;;31.58;19.45;;;7.30;99.90;;;;;;7370821;19;20023;-60
2023/02/13 01:03:56;;;;;;;29.75;18.83;;;7.20;99.90;;;;;;7373628;19;20018;-60
2023/02/13 01:06:24;;;;;;;29.30;18.00;;;7.30;99.90;;;;;;7368410;19;20019;-60
2023/02/13 01:08:50;;;;;;;26.05;17.55;;;7.30;99.90;;;;;;7370289;19;20785;-61
2023/02/13 01:11:18;;;;;;;26.80;17.88;;;7.20;99.90;;;;;;7369269;19;20022;-59
2023/02/13 01:13:45;;;;;;;29.17;17.45;;;7.20;99.90;;;;;;7368019;19;20022;-60
2023/02/13 01:16:11;;;;;;;28.88;18.17;;;7.20;99.90;;;;;;7370000;19;20015;-59
2023/02/13 01:18:38;;;;;;;25.00;16.77;;;7.20;99.90;;;;;;7367500;19;20014;-61
2023/02/13 01:21:07;;;;;;;29.50;18.38;;;7.20;99.90;;;;;;7368113;19;20032;-61
2023/02/13 01:23:36;;;;;;;24.45;16.80;;;7.20;99.90;;;;;;7367852;19;20050;-60
2023/02/13 01:26:07;;;;;;;29.63;19.13;;;7.20;99.90;;;;;;7368497;19;20015;-61
2023/02/13 01:28:34;;;;;;;30.45;18.67;;;7.10;99.90;;;;;;7369697;19;20675;-60
2023/02/13 01:31:00;;;;;;;27.15;17.95;;;7.10;99.90;;;;;;7367158;19;20031;-61
2023/02/13 01:33:28;;;;;;;28.80;17.67;;;7.20;99.90;;;;;;7368376;19;20101;-61
2023/02/13 01:35:55;;;;;;;28.48;18.40;;;7.10;99.90;;;;;;7369667;19;20022;-61
2023/02/13 01:38:22;;;;;;;27.77;18.20;;;7.10;99.90;;;;;;7368746;19;20014;-61
2023/02/13 01:40:50;;;;;;;29.00;18.50;;;7.10;99.90;;;;;;7368562;19;20018;-59
2023/02/13 01:43:18;;;;;;;26.10;17.85;;;7.10;99.90;;;;;;7366260;19;20024;-59
2023/02/13 01:45:49;;;;;;;29.85;18.95;;;7.10;99.90;;;;;;7373103;19;20027;-61
2023/02/13 01:48:22;;;;;;;27.33;18.38;;;7.10;99.90;;;;;;7375269;19;20022;-60
2023/02/13 01:50:51;;;;;;;27.95;18.08;;;7.10;99.90;;;;;;7375906;19;20018;-61
2023/02/13 01:53:40;;;;;;;29.75;18.00;;;7.10;99.90;;;;;;7374830;19;20384;-61
2023/02/13 01:56:22;;;;;;;29.05;17.85;;;7.10;99.90;;;;;;7375508;19;20804;-61
2023/02/13 01:58:53;;;;;;;25.58;17.52;;;7.00;99.90;;;;;;7374060;19;20460;-61
2023/02/13 02:01:22;;;;;;;26.45;17.15;;;7.00;99.90;;;;;;7371933;19;20769;-62
2023/02/13 02:03:59;;;;;;;27.75;18.02;;;7.00;99.90;;;;;;7374469;19;20023;-61
2023/02/13 02:06:42;;;;;;;29.00;18.90;;;7.00;99.90;;;;;;7371459;19;20102;-61
2023/02/13 02:09:14;;;;;;;25.50;17.60;;;7.00;99.90;;;;;;7371966;19;20030;-61
2023/02/13 02:11:59;;;;;;;26.38;17.73;;;7.00;99.90;;;;;;7373859;19;20087;-61
2023/02/13 02:14:26;;;;;;;28.35;16.85;;;7.00;99.90;;;;;;7373281;19;20014;-62
2023/02/13 02:16:56;;;;;;;30.08;17.80;;;7.00;99.90;;;;;;7374861;19;20018;-60
2023/02/13 02:20:10;;;;;;;29.40;18.95;;;7.00;99.90;;;;;;7372992;19;20014;-60
2023/02/13 02:22:59;;;;;;;32.45;19.27;;;7.00;99.90;;;;;;7375548;19;20645;-61
2023/02/13 02:26:04;;;;;;;26.50;17.30;;;7.00;99.90;;;;;;7373512;19;20101;-61
2023/02/13 02:28:59;;;;;;;29.38;18.80;;;7.00;99.90;;;;;;7373524;19;21855;-62
2023/02/13 02:31:47;;;;;;;26.65;17.65;;;7.00;99.90;;;;;;7368856;19;20025;-62
2023/02/13 02:34:38;;;;;;;28.30;17.30;;;6.90;99.90;;;;;;7373754;19;20023;-62
2023/02/13 02:37:28;;;;;;;27.88;17.50;;;6.90;99.90;;;;;;7372481;19;20077;-60
2023/02/13 02:40:00;;;;;;;27.42;19.08;;;6.90;99.90;;;;;;7371837;19;20026;-60
2023/02/13 02:42:32;;;;;;;33.47;19.08;;;6.90;99.90;;;;;;7375853;19;20059;-60
2023/02/13 02:45:19;;;;;;;29.75;19.13;;;6.90;99.90;;;;;;7374022;19;20018;-60
2023/02/13 02:51:09;;;;;;;32.33;19.60;;;6.90;99.90;;;;;;7372843;19;20033;-60
2023/02/13 02:53:45;;;;;;;29.10;19.52;;;6.90;99.90;;;;;;7374522;19;20636;-60
2023/02/13 02:56:21;;;;;;;;;;;6.90;99.90;;;;;;7370522;19;20097;-61
2023/02/13 03:07:44;;;;;;;25.02;17.95;;;6.90;99.90;;;;;;7367502;19;20936;-60
2023/02/13 03:13:22;;;;;;;29.43;19.47;;;6.90;99.90;;;;;;7369385;19;20019;-60
2023/02/13 03:24:26;;;;;;;31.52;20.95;;;6.80;99.90;;;;;;7372275;19;20045;-62
2023/02/13 03:27:10;;;;;;;31.73;20.13;;;6.80;99.90;;;;;;7372188;19;20015;-61
2023/02/13 03:30:07;;;;;;;31.92;20.27;;;6.90;99.90;;;;;;7372052;19;20432;-60
2023/02/13 03:32:40;;;;;;;31.95;19.67;;;6.90;99.90;;;;;;7371168;19;20026;-62
2023/02/13 03:38:27;;;;;;;27.65;17.50;;;6.90;99.90;;;;;;7367228;19;20018;-61
2023/02/13 03:41:18;;;;;;;32.70;19.50;;;6.90;99.90;;;;;;7364314;19;20869;-62
2023/02/13 03:43:51;;;;;;;27.77;18.52;;;6.90;99.90;;;;;;7370764;19;20026;-63
2023/02/13 03:46:19;;;;;;;29.48;18.98;;;6.90;99.90;;;;;;7366954;19;20756;-62
2023/02/13 03:51:47;;;;;;;27.92;18.92;;;6.90;99.90;;;;;;7367543;19;20373;-62
2023/02/13 04:00:28;;;;;;;27.63;18.05;;;6.80;99.90;;;;;;7371542;19;20022;-61
2023/02/13 04:03:04;;;;;;;35.15;20.10;;;6.80;99.90;;;;;;7372688;19;20015;-61
2023/02/13 04:05:40;;;;;;;29.73;18.70;;;6.80;99.90;;;;;;7370005;19;20106;-62
2023/02/13 04:08:06;;;;;;;29.08;19.30;;;6.80;99.90;;;;;;7368370;19;20022;-61
2023/02/13 04:10:36;;;;;;;29.83;19.17;;;6.80;99.90;;;;;;7370524;19;20041;-62
2023/02/13 04:13:23;;;;;;;28.67;18.88;;;6.90;99.90;;;;;;7373436;19;20010;-62
2023/02/13 04:15:57;;;;;;;29.70;18.60;;;6.90;99.90;;;;;;7370088;19;20806;-61
2023/02/13 04:18:28;;;;;;;27.08;18.08;;;6.90;99.90;;;;;;7369417;19;20022;-61
2023/02/13 04:20:55;;;;;;;28.60;18.50;;;6.90;99.90;;;;;;7375179;19;20608;-61
2023/02/13 04:23:21;;;;;;;25.88;18.20;;;6.90;99.90;;;;;;7369778;19;20361;-60
2023/02/13 04:25:53;;;;;;;27.33;18.15;;;6.90;99.90;;;;;;7371038;19;20030;-60
2023/02/13 04:28:20;;;;;;;29.15;19.80;;;6.90;99.90;;;;;;7368893;19;20018;-61
2023/02/13 04:30:46;;;;;;;27.02;18.70;;;6.90;99.90;;;;;;7372960;19;20027;-62
2023/02/13 04:33:13;;;;;;;29.05;18.27;;;6.90;99.90;;;;;;7370947;19;20022;-61
2023/02/13 04:35:39;;;;;;;28.15;18.83;;;6.90;99.90;;;;;;7369443;19;20019;-62
2023/02/13 04:38:05;;;;;;;27.45;18.15;;;6.90;99.90;;;;;;7369793;19;20014;-60
2023/02/13 04:40:36;;;;;;;27.95;17.95;;;6.90;99.90;;;;;;7373334;19;20469;-61
2023/02/13 04:43:02;;;;;;;25.33;18.83;;;6.90;99.90;;;;;;7373334;19;20090;-62
2023/02/13 04:45:28;;;;;;;29.05;19.85;;;6.90;99.90;;;;;;7373036;19;20019;-62
2023/02/13 04:47:56;;;;;;;27.80;19.23;;;6.90;99.90;;;;;;7368868;19;20030;-62
2023/02/13 04:50:24;;;;;;;29.83;19.05;;;6.90;99.90;;;;;;7372017;19;20014;-60
2023/02/13 04:52:54;;;;;;;26.25;17.77;;;6.90;99.90;;;;;;7372575;19;20053;-61
2023/02/13 04:55:25;;;;;;;28.40;19.20;;;6.90;99.90;;;;;;7368307;19;20022;-61
2023/02/13 04:57:53;;;;;;;32.63;20.30;;;6.90;99.90;;;;;;7371122;19;20022;-61
2023/02/13 05:00:24;;;;;;;29.35;19.27;;;6.90;99.90;;;;;;7369581;19;20018;-61
2023/02/13 05:02:51;;;;;;;32.75;20.27;;;6.80;99.90;;;;;;7372392;19;20492;-62
2023/02/13 05:05:18;;;;;;;30.00;19.35;;;6.80;99.90;;;;;;7371175;19;20573;-60
2023/02/13 05:07:44;;;;;;;28.35;18.33;;;6.80;99.90;;;;;;7371711;19;20035;-62
2023/02/13 05:10:12;;;;;;;24.98;18.63;;;6.90;99.90;;;;;;7369590;19;20018;-62
2023/02/13 05:12:38;;;;;;;33.25;20.13;;;6.80;99.90;;;;;;7364804;19;20018;-62
2023/02/13 05:15:05;;;;;;;30.25;20.23;;;6.80;99.90;;;;;;7368203;19;20011;-61
2023/02/13 05:17:32;;;;;;;29.52;18.73;;;6.80;99.90;;;;;;7363327;19;20019;-61
2023/02/13 05:19:58;;;;;;;29.13;19.60;;;6.80;99.90;;;;;;7370035;19;20030;-61
2023/02/13 05:25:10;;;;;;;27.90;17.88;;;6.80;99.90;;;;;;7366622;19;21564;-61
2023/02/13 05:27:37;;;;;;;26.95;18.50;;;6.80;99.90;;;;;;7365587;19;20510;-61
2023/02/13 05:30:03;;;;;;;29.58;18.10;;;6.80;99.90;;;;;;7362491;19;20022;-61
2023/02/13 05:32:30;;;;;;;30.90;18.73;;;6.80;99.90;;;;;;7366746;19;20485;-60
2023/02/13 05:34:56;;;;;;;31.45;18.65;;;6.80;99.90;;;;;;7370069;19;20018;-60
2023/02/13 05:37:23;;;;;;;36.05;20.00;;;6.80;99.90;;;;;;7369864;19;20023;-62
2023/02/13 05:39:49;;;;;;;26.00;18.00;;;6.80;99.90;;;;;;7365702;19;20018;-62
2023/02/13 05:42:15;;;;;;;28.10;19.20;;;6.80;99.90;;;;;;7370782;19;20858;-62
2023/02/13 05:44:42;;;;;;;29.13;19.38;;;6.80;99.90;;;;;;7369469;19;20022;-62
2023/02/13 05:47:09;;;;;;;30.33;19.63;;;6.80;99.90;;;;;;7366443;19;20296;-61
2023/02/13 05:49:35;;;;;;;30.42;19.73;;;6.80;99.90;;;;;;7366438;19;20030;-60
2023/02/13 05:52:02;;;;;;;30.10;19.92;;;6.80;99.90;;;;;;7362696;19;20025;-62
2023/02/13 05:54:28;;;;;;;29.85;20.25;;;6.80;99.90;;;;;;7363434;19;20082;-62
2023/02/13 05:56:55;;;;;;;31.00;19.42;;;6.80;99.90;;;;;;7364494;19;20850;-61
2023/02/13 05:59:22;;;;;;;26.60;18.83;;;6.70;99.90;;;;;;7367872;19;20026;-62
2023/02/13 06:01:48;;;;;;;32.28;20.35;;;6.80;99.90;;;;;;7368247;19;20438;-62
2023/02/13 06:04:15;;;;;;;33.67;19.17;;;6.80;99.90;;;;;;7367612;19;20026;-60
2023/02/13 06:06:41;;;;;;;30.10;17.65;;;6.80;99.90;;;;;;7372159;19;20026;-60
2023/02/13 06:09:07;;;;;;;31.40;19.42;;;6.80;99.90;;;;;;7368136;19;20019;-60
2023/02/13 06:11:35;;;;;;;31.27;19.50;;;6.80;99.90;;;;;;7368740;19;20029;-62
2023/02/13 06:14:02;;;;;;;30.13;18.85;;;6.70;99.90;;;;;;7369295;19;20015;-60
2023/02/13 06:16:30;;;;;;;28.38;18.05;;;6.70;99.90;;;;;;7371426;19;20666;-60
2023/02/13 06:18:57;;;;;;;28.17;17.65;;;6.70;99.90;;;;;;7369955;19;20023;-60
2023/02/13 06:21:23;;;;;;;29.10;18.27;;;6.70;99.90;;;;;;7366680;19;20018;-60
2023/02/13 06:23:49;;;;;;;30.23;19.25;;;6.70;99.90;;;;;;7366683;19;20041;-62
2023/02/13 06:26:18;;;;;;;30.30;17.75;;;6.70;99.90;;;;;;7362465;19;20251;-62
2023/02/13 06:28:45;;;;;;;25.88;16.23;;;6.70;99.90;;;;;;7362607;19;20018;-62
2023/02/13 06:31:11;;;;;;;28.98;17.80;;;6.70;99.90;;;;;;7366182;19;20057;-62
2023/02/13 06:33:37;;;;;;;26.92;18.80;;;6.70;99.90;;;;;;7371458;19;20018;-62
2023/02/13 06:36:05;;;;;;;27.45;17.73;;;6.70;99.90;;;;;;7376894;19;20029;-63
2023/02/13 06:38:36;;;;;;;28.92;18.20;;;6.70;99.90;;;;;;7372143;19;20782;-62
2023/02/13 06:41:03;;;;;;;28.02;18.65;;;6.70;99.90;;;;;;7375207;19;20920;-62
2023/02/13 06:43:29;;;;;;;26.92;18.20;;;6.70;99.90;;;;;;7372863;19;20038;-62
2023/02/13 06:45:56;;;;;;;31.27;19.42;;;6.70;99.90;;;;;;7371704;19;20355;-60
2023/02/13 06:48:22;;;;;;;29.05;17.65;;;6.70;99.90;;;;;;7373739;19;20667;-61
2023/02/13 06:50:50;;;;;;;33.45;19.00;;;6.80;99.90;;;;;;7372176;19;20023;-59
2023/02/13 06:53:23;;;;;;;29.42;19.23;;;6.80;99.90;;;;;;7373395;19;20018;-62
2023/02/13 06:55:52;;;;;;;29.33;19.65;;;6.80;99.90;;;;;;7374425;19;20025;-61
2023/02/13 06:58:19;;;;;;;40.35;24.25;;;6.80;99.90;;;;;;7374081;19;20015;-60
2023/02/13 07:00:46;;;;;;;36.70;23.02;;;6.80;99.90;;;;;;7370614;19;20039;-60
2023/02/13 07:03:13;;;;;;;33.28;19.55;;;6.80;99.90;;;;;;7377060;19;20473;-60
2023/02/13 07:05:41;;;;;;;29.45;18.25;;;6.80;99.90;;;;;;7375325;19;20624;-61
2023/02/13 07:08:08;;;;;;;29.48;20.48;;;6.70;99.90;;;;;;7373336;19;20018;-60
2023/02/13 07:10:40;;;;;;;28.40;19.42;;;6.80;99.90;;;;;;7372490;19;20047;-59
2023/02/13 07:13:08;;;;;;;28.88;19.20;;;6.70;99.90;;;;;;7375347;19;20015;-61
2023/02/13 07:15:36;;;;;;;33.25;21.45;;;6.80;99.90;;;;;;7373492;19;20030;-61
2023/02/13 07:18:04;;;;;;;29.00;19.73;;;6.80;99.90;;;;;;7376345;19;20025;-61
2023/02/13 07:20:30;;;;;;;28.95;18.80;;;6.80;99.90;;;;;;7371450;19;20074;-62
2023/02/13 07:23:03;;;;;;;28.45;19.90;;;6.80;99.90;;;;;;7377105;19;20511;-61
2023/02/13 07:25:30;;;;;;;28.88;18.80;;;6.80;99.90;;;;;;7371433;19;20476;-60
2023/02/13 07:28:02;;;;;;;26.63;18.70;;;6.80;99.90;;;;;;7376505;19;20065;-61
2023/02/13 07:30:30;;;;;;;26.10;18.45;;;6.80;99.90;;;;;;7368767;19;20026;-61
2023/02/13 07:33:04;;;;;;;25.65;18.05;;;6.80;99.90;;;;;;7372849;19;20019;-61
2023/02/13 07:35:31;;;;;;;29.35;19.55;;;6.80;99.90;;;;;;7373546;19;20509;-60
2023/02/13 07:37:59;;;;;;;29.15;19.65;;;6.80;99.90;;;;;;7373509;19;20494;-60
2023/02/13 07:40:26;;;;;;;27.02;18.42;;;6.80;99.90;;;;;;7372361;19;20022;-60
2023/02/13 07:42:52;;;;;;;26.60;19.02;;;6.90;99.90;;;;;;7365571;19;20026;-60
2023/02/13 07:45:19;;;;;;;28.77;18.60;;;6.90;99.90;;;;;;7370169;19;20018;-61
2023/02/13 07:47:45;;;;;;;25.55;19.17;;;6.90;99.90;;;;;;7371459;19;21491;-60
2023/02/13 07:50:11;;;;;;;28.23;18.48;;;6.90;99.90;;;;;;7373914;19;20011;-62
2023/02/13 07:52:38;;;;;;;28.48;18.67;;;6.90;99.90;;;;;;7367616;19;20844;-60
2023/02/13 07:55:05;;;;;;;31.88;18.55;;;6.90;99.90;;;;;;7371937;19;20014;-60
2023/02/13 07:57:36;;;;;;;28.02;18.17;;;6.90;99.90;;;;;;7374492;19;20010;-62
2023/02/13 08:00:10;;;;;;;26.15;17.70;;;6.90;99.90;;;;;;7367094;19;20442;-62
2023/02/13 08:02:39;;;;;;;30.00;19.65;;;7.00;99.90;;;;;;7372279;19;20728;-62
2023/02/13 08:05:06;;;;;;;26.38;18.05;;;7.00;99.90;;;;;;7374334;19;20103;-63
2023/02/13 08:07:33;;;;;;;30.83;18.50;;;7.00;99.90;;;;;;7370712;19;20022;-61
2023/02/13 08:12:45;;;;;;;26.00;18.95;;;7.10;99.90;;;;;;7368462;19;20061;-62
2023/02/13 08:15:13;;;;;;;31.52;19.10;;;7.10;99.90;;;;;;7367843;19;20018;-62
2023/02/13 08:17:39;;;;;;;26.73;18.10;;;7.10;99.90;;;;;;7370826;19;20077;-59
2023/02/13 08:20:11;;;;;;;26.13;17.80;;;7.10;99.90;;;;;;7369465;19;20019;-60
2023/02/13 08:22:37;;;;;;;29.98;19.10;;;7.20;99.90;;;;;;7373268;19;20014;-60
2023/02/13 08:25:05;;;;;;;30.88;20.10;;;7.20;99.90;;;;;;7372284;19;20022;-60
2023/02/13 08:27:32;;;;;;;29.27;19.90;;;7.20;99.90;;;;;;7369303;19;20762;-61
2023/02/13 08:29:59;;;;;;;29.25;20.42;;;7.20;99.90;;;;;;7371711;19;20029;-60
2023/02/13 08:32:25;;;;;;;30.30;19.98;;;7.30;99.90;;;;;;7371240;19;20019;-60
2023/02/13 08:34:51;;;;;;;34.25;20.17;;;7.30;99.90;;;;;;7370315;19;20019;-62
2023/02/13 08:37:18;;;;;;;29.10;18.80;;;7.30;99.90;;;;;;7367694;19;20572;-59
2023/02/13 08:39:44;;;;;;;26.70;19.05;;;7.30;99.90;;;;;;7370295;19;20101;-63
2023/02/13 08:42:10;;;;;;;28.70;17.77;;;7.30;99.90;;;;;;7366258;19;20755;-61
2023/02/13 08:44:44;;;;;;;27.88;18.50;;;7.30;99.90;;;;;;7366983;19;20014;-62
2023/02/13 08:47:11;;;;;;;27.98;18.50;;;7.40;99.90;;;;;;7370526;19;20018;-60
2023/02/13 08:49:37;;;;;;;28.90;17.50;;;7.40;99.90;;;;;;7373942;19;20015;-60
2023/02/13 08:52:04;;;;;;;30.05;19.60;;;7.40;99.90;;;;;;7370543;19;20018;-61
2023/02/13 08:54:32;;;;;;;28.40;18.48;;;7.40;99.90;;;;;;7369327;19;20022;-61
2023/02/13 08:56:58;;;;;;;24.17;16.98;;;7.50;99.90;;;;;;7366265;19;21036;-62
2023/02/13 08:59:25;;;;;;;29.90;18.55;;;7.50;99.90;;;;;;7370301;19;20382;-63
2023/02/13 09:01:57;;;;;;;25.13;17.00;;;7.50;99.90;;;;;;7369720;19;20010;-60
2023/02/13 09:04:27;;;;;;;28.67;18.90;;;7.50;99.90;;;;;;7370909;19;20015;-61
2023/02/13 09:06:53;;;;;;;26.38;17.58;;;7.50;99.90;;;;;;7369297;19;20018;-62
2023/02/13 09:09:34;;;;;;;26.27;18.05;;;7.60;99.90;;;;;;7368916;19;20022;-62
2023/02/13 09:12:00;;;;;;;29.38;19.13;;;7.60;99.90;;;;;;7369955;19;20018;-60
2023/02/13 09:14:27;;;;;;;27.35;17.63;;;7.60;99.90;;;;;;7368536;19;20619;-62
2023/02/13 09:16:53;;;;;;;30.02;19.05;;;7.60;99.90;;;;;;7371369;19;20026;-61
2023/02/13 09:19:21;;;;;;;24.80;18.30;;;7.70;99.90;;;;;;7368859;19;20006;-62
2023/02/13 09:21:48;;;;;;;27.02;18.52;;;7.70;99.90;;;;;;7367326;19;20022;-62
2023/02/13 09:24:14;;;;;;;27.70;18.92;;;7.70;99.90;;;;;;7369735;19;20006;-60
2023/02/13 09:26:40;;;;;;;27.58;18.73;;;7.70;99.90;;;;;;7370742;19;20066;-62
2023/02/13 09:29:09;;;;;;;25.50;17.27;;;7.80;99.90;;;;;;7370545;19;20015;-60
2023/02/13 09:31:36;;;;;;;29.15;19.73;;;7.80;99.90;;;;;;7368231;19;20018;-65
2023/02/13 09:34:02;;;;;;;27.50;17.58;;;7.80;99.90;;;;;;7370602;19;20042;-61
2023/02/13 09:36:32;;;;;;;31.42;18.48;;;7.80;99.90;;;;;;7368200;19;20010;-60
2023/02/13 09:38:59;;;;;;;26.92;17.92;;;7.80;99.90;;;;;;7370446;19;20610;-60
2023/02/13 09:41:35;;;;;;;26.27;18.48;;;7.80;99.90;;;;;;7369106;19;20022;-61
2023/02/13 09:44:32;;;;;;;26.77;17.23;;;7.90;99.90;;;;;;7368240;19;20781;-62
2023/02/13 09:47:16;;;;;;;25.00;17.40;;;7.90;99.90;;;;;;7367604;19;20041;-62
2023/02/13 09:49:56;;;;;;;25.83;16.92;;;7.90;99.90;;;;;;7371590;19;20827;-62
2023/02/13 09:52:22;;;;;;;24.48;17.02;;;8.00;99.90;;;;;;7365787;19;20081;-62
2023/02/13 09:54:48;;;;;;;28.27;18.05;;;8.00;99.90;;;;;;7368991;19;20036;-62
2023/02/13 09:57:21;;;;;;;23.63;16.33;;;8.10;99.90;;;;;;7370416;19;20011;-62
2023/02/13 10:00:11;;;;;;;27.35;18.20;;;8.10;99.90;;;;;;7367501;19;20020;-62
2023/02/13 10:02:56;;;;;;;29.00;18.83;;;8.20;99.90;;;;;;7368234;19;21082;-63
2023/02/13 10:05:44;;;;;;;30.83;18.13;;;8.20;99.90;;;;;;7369772;19;20381;-62
2023/02/13 10:08:41;;;;;;;30.02;18.48;;;8.20;99.90;;;;;;7376711;19;20039;-61
2023/02/13 10:11:16;;;;;;;27.88;17.85;;;8.30;99.90;;;;;;7371449;19;20484;-61
2023/02/13 10:14:10;;;;;;;25.70;17.15;;;8.30;99.90;;;;;;7377993;19;20035;-60
2023/02/13 10:17:00;;;;;;;28.25;17.27;;;8.40;99.90;;;;;;7378312;19;20015;-61
2023/02/13 10:20:00;;;;;;;27.40;16.85;;;8.40;99.90;;;;;;7377569;19;20026;-61
2023/02/13 10:22:57;;;;;;;24.63;17.00;;;8.50;99.90;;;;;;7376506;19;20496;-60
2023/02/13 10:25:27;;;;;;;27.13;18.30;;;8.60;99.90;;;;;;7375913;19;20023;-61
2023/02/13 10:28:02;;;;;;;28.40;18.90;;;8.60;99.90;;;;;;7380318;19;20077;-61
2023/02/13 10:30:54;;;;;;;27.13;18.92;;;8.70;99.90;;;;;;7373473;19;20649;-61
2023/02/13 10:33:27;;;;;;;28.65;17.80;;;8.70;99.90;;;;;;7373135;19;20027;-61
2023/02/13 10:36:08;;;;;;;33.28;21.15;;;8.80;99.90;;;;;;7378294;19;20018;-61
2023/02/13 10:38:44;;;;;;;26.88;17.38;;;8.80;99.90;;;;;;7374189;19;20379;-61
2023/02/13 10:41:39;;;;;;;27.70;19.48;;;8.90;99.90;;;;;;7375506;19;20078;-61
2023/02/13 10:44:37;;;;;;;30.30;19.90;;;8.90;99.90;;;;;;7374487;19;20014;-61
2023/02/13 10:47:29;;;;;;;26.63;18.42;;;8.90;99.90;;;;;;7369319;19;21567;-61
2023/02/13 10:50:14;;;;;;;29.85;19.90;;;9.00;99.90;;;;;;7371646;19;20015;-61
2023/02/13 10:53:12;;;;;;;29.50;19.80;;;9.00;99.90;;;;;;7369367;19;20509;-61
2023/02/13 10:55:57;;;;;;;29.13;20.63;;;9.00;99.90;;;;;;7371578;19;20469;-61
2023/02/13 10:58:49;;;;;;;28.13;18.75;;;9.00;99.90;;;;;;7375179;19;20022;-62
2023/02/13 11:01:37;;;;;;;28.73;19.67;;;9.00;99.90;;;;;;7371666;19;20032;-61
2023/02/13 11:04:13;;;;;;;28.83;20.23;;;9.10;99.90;;;;;;7370099;19;20500;-61
2023/02/13 11:06:59;;;;;;;27.80;18.92;;;9.20;99.90;;;;;;7368617;19;20515;-61
2023/02/13 11:09:27;;;;;;;28.83;21.58;;;9.20;99.90;;;;;;7371087;19;20022;-63
2023/02/13 11:11:54;;;;;;;30.15;21.05;;;9.20;99.90;;;;;;7371949;19;20547;-63
2023/02/13 11:14:23;;;;;;;30.05;21.10;;;9.20;99.90;;;;;;7373493;19;20023;-63
2023/02/13 11:17:00;;;;;;;26.83;20.35;;;9.20;99.90;;;;;;7367731;19;20066;-63
2023/02/13 11:19:45;;;;;;;27.13;20.23;;;9.20;99.90;;;;;;7372628;19;20030;-63
2023/02/13 11:22:15;;;;;;;29.75;20.42;;;9.30;99.90;;;;;;7370926;19;20583;-64
2023/02/13 11:24:57;;;;;;;28.52;21.65;;;9.40;99.90;;;;;;7371564;19;20298;-63
2023/02/13 11:27:30;;;;;;;26.52;19.92;;;9.40;99.90;;;;;;7372017;19;20022;-63
2023/02/13 11:30:01;;;;;;;27.90;20.70;;;9.40;99.90;;;;;;7371095;19;20797;-63
2023/02/13 11:32:30;;;;;;;30.52;22.52;;;9.50;99.90;;;;;;7369869;19;20090;-61
2023/02/13 11:34:57;;;;;;;30.83;21.75;;;9.60;99.90;;;;;;7373232;19;20772;-63
2023/02/13 11:37:27;;;;;;;30.30;21.95;;;9.70;99.90;;;;;;7371178;19;20765;-64
2023/02/13 11:39:56;;;;;;;29.20;21.38;;;9.70;99.90;;;;;;7373717;19;20035;-63
2023/02/13 11:42:31;;;;;;;30.10;22.00;;;9.80;99.90;;;;;;7370420;19;20018;-63
2023/02/13 11:45:00;;;;;;;30.00;22.33;;;9.80;99.90;;;;;;7366317;19;20021;-63
2023/02/13 11:47:36;;;;;;;30.70;21.23;;;9.80;99.90;;;;;;7368129;19;20019;-65
2023/02/13 11:50:18;;;;;;;28.58;21.55;;;9.80;99.90;;;;;;7371718;19;20018;-63
2023/02/13 11:53:02;;;;;;;29.92;21.95;;;9.90;99.90;;;;;;7365681;19;20019;-63
2023/02/13 11:55:33;;;;;;;30.67;21.75;;;9.90;99.90;;;;;;7370091;19;20482;-63
2023/02/13 11:58:14;;;;;;;30.48;22.30;;;9.90;99.90;;;;;;7375908;19;20485;-63
2023/02/13 12:00:42;;;;;;;29.80;21.75;;;10.00;99.90;;;;;;7371110;19;20018;-63
2023/02/13 12:03:20;;;;;;;28.00;21.85;;;10.00;99.90;;;;;;7370921;19;20117;-61
2023/02/13 12:06:12;;;;;;;28.42;22.75;;;10.20;99.90;;;;;;7368164;19;20014;-60
2023/02/13 12:08:40;;;;;;;32.08;23.50;;;10.30;99.90;;;;;;7374031;19;20040;-61
2023/02/13 12:11:44;;;;;;;29.77;23.42;;;10.30;99.90;;;;;;7369934;19;20022;-61
2023/02/13 12:14:17;;;;;;;30.90;22.38;;;10.30;99.90;;;;;;7371529;19;20365;-61
2023/02/13 12:16:49;;;;;;;31.40;23.58;;;10.30;99.90;;;;;;7368422;19;20022;-61
2023/02/13 12:19:27;;;;;;;28.02;22.40;;;10.40;99.90;;;;;;7371250;19;20018;-62
2023/02/13 12:22:13;;;;;;;26.98;22.83;;;10.50;99.90;;;;;;7367800;19;20022;-61
2023/02/13 12:25:04;;;;;;;31.20;23.58;;;10.60;99.90;;;;;;7366569;19;20509;-62
2023/02/13 12:27:41;;;;;;;31.67;23.93;;;10.70;99.90;;;;;;7367623;19;20010;-61
2023/02/13 12:30:11;;;;;;;29.52;23.35;;;10.70;99.90;;;;;;7369507;19;20021;-61
2023/02/13 12:32:56;;;;;;;28.83;22.88;;;10.80;99.90;;;;;;7370106;19;20010;-63
2023/02/13 12:36:21;;;;;;;29.40;23.15;;;10.80;99.90;;;;;;7371043;19;20036;-64
2023/02/13 12:38:51;;;;;;;22.77;19.80;;;10.80;99.90;;;;;;7368014;19;20521;-63
2023/02/13 12:41:47;;;;;;;20.55;18.35;;;11.00;99.90;;;;;;7370223;19;20857;-61
2023/02/13 12:44:15;;;;;;;23.17;20.02;;;11.00;99.90;;;;;;7371240;19;20026;-61
2023/02/13 12:47:06;;;;;;;23.98;21.25;;;10.90;99.90;;;;;;7372827;19;20014;-61
2023/02/13 12:49:59;;;;;;;20.77;17.55;;;10.90;99.90;;;;;;7370045;19;20026;-62
2023/02/13 12:52:34;;;;;;;21.00;18.80;;;10.80;99.90;;;;;;7369861;19;20491;-61
2023/02/13 12:55:28;;;;;;;21.58;19.30;;;10.80;99.90;;;;;;7372300;19;20390;-61
2023/02/13 12:58:04;;;;;;;23.33;20.33;;;10.80;99.90;;;;;;7372362;19;20069;-62
2023/02/13 13:00:50;;;;;;;24.42;21.48;;;10.70;99.90;;;;;;7369136;19;20036;-61
2023/02/13 13:03:50;;;;;;;22.45;20.05;;;10.70;99.90;;;;;;7367595;19;20579;-61
2023/02/13 13:06:25;;;;;;;24.40;21.77;;;10.70;99.90;;;;;;7369935;19;20489;-61
2023/02/13 13:09:11;;;;;;;22.65;20.25;;;10.80;99.90;;;;;;7373677;19;20583;-62
2023/02/13 13:12:22;;;;;;;21.05;18.92;;;10.80;99.90;;;;;;7366493;19;20351;-63
2023/02/13 13:15:00;;;;;;;21.60;19.33;;;10.90;99.90;;;;;;7366820;19;20022;-62
2023/02/13 13:17:51;;;;;;;21.98;19.67;;;11.00;99.90;;;;;;7367251;19;20022;-62
2023/02/13 13:20:46;;;;;;;23.35;20.65;;;11.00;99.90;;;;;;7368477;19;20014;-62
2023/02/13 13:23:31;;;;;;;24.23;21.38;;;11.00;99.90;;;;;;7370250;19;20025;-62
2023/02/13 13:26:04;;;;;;;23.35;20.95;;;11.00;99.90;;;;;;7371529;19;20014;-60
2023/02/13 13:28:39;;;;;;;23.73;21.30;;;10.90;99.90;;;;;;7367368;19;20019;-60
2023/02/13 13:31:07;;;;;;;24.42;21.98;;;10.80;99.90;;;;;;7368709;19;20019;-62
2023/02/13 13:33:34;;;;;;;24.50;22.00;;;10.80;99.90;;;;;;7368313;19;20014;-63
2023/02/13 13:36:29;;;;;;;25.08;22.58;;;10.80;99.90;;;;;;7370661;19;20010;-64
2023/02/13 13:39:15;;;;;;;24.85;22.20;;;10.90;99.90;;;;;;7372175;19;20018;-63
2023/02/13 13:42:01;;;;;;;24.95;22.35;;;11.00;99.90;;;;;;7372608;19;20041;-63
2023/02/13 13:44:42;;;;;;;23.67;21.27;;;10.90;99.90;;;;;;7375966;19;20018;-61
2023/02/13 13:47:12;;;;;;;26.98;24.08;;;11.00;99.90;;;;;;7379380;19;20018;-63